DW1549 Fauske NO current weather conditions

sailwx.info

Wind from 130 at 11 knots gusting 17

Air temperature 5.0° C
Dewpoint -0.6° C

Last reported at 2015-Feb-27 15:38 UTC.
Time now 2015-Feb-27 16:55 UTC

Location: N 67°16' E 015°25'.
View on Google Maps.

See reports from other nearby stations

  
Tides and Currents Weather Stations Pressure Air Temp Water Temp Dewpoint Dewpoint Depression Visibility Wind Speed Wind Dir Waves Ship Positions
date/time (UTC)wind fromknots sea level pressurealtimeterstation pressurevisibilityair tempwater tempwave heightnotes
2015-Feb-27 15:38 130 11 gusting 17 5.0
2015-Feb-27 15:28 128 12 gusting 17 5.0
2015-Feb-27 15:18 138 8 gusting 17 5.0
2015-Feb-27 15:08 138 7 gusting 15 5.0
2015-Feb-27 14:58 128 10 gusting 15 5.0
2015-Feb-27 14:48 128 11 gusting 15 5.0
2015-Feb-27 14:38 126 8 gusting 13 4.4
2015-Feb-27 14:28 116 8 gusting 13 4.4
2015-Feb-27 14:18 117 8 gusting 12 4.4
2015-Feb-27 14:08 118 7 gusting 13 4.4
2015-Feb-27 13:58 121 7 gusting 13 4.4
2015-Feb-27 13:48 123 6 gusting 11 4.4
2015-Feb-27 13:38 129 6 gusting 14 4.4
2015-Feb-27 13:28 128 6 gusting 10 3.9
2015-Feb-27 13:18 125 0 gusting 2 3.9
2015-Feb-27 13:08 125 4.4
2015-Feb-27 12:58 116 4 gusting 10 4.4
2015-Feb-27 12:48 117 4 gusting 10 4.4
2015-Feb-27 12:38 135 1 gusting 6 4.4
2015-Feb-27 12:28 142 3 gusting 7 4.4
2015-Feb-27 12:18 132 1 gusting 7 4.4
2015-Feb-27 12:08 133 5 gusting 8 4.4
2015-Feb-27 11:58 134 4 gusting 10 4.4
2015-Feb-27 11:48 131 4 gusting 8 4.4
2015-Feb-27 11:38 143 2 gusting 8 4.4
2015-Feb-27 11:28 133 6 gusting 12 4.4
2015-Feb-27 11:18 125 6 gusting 13 4.4
2015-Feb-27 11:08 127 7 gusting 11 4.4
2015-Feb-27 10:59 144 7 gusting 11 4.4
2015-Feb-27 10:48 141 4 gusting 8 4.4
2015-Feb-27 10:38 150 4 gusting 8 4.4
2015-Feb-27 10:28 163 4 gusting 8 5.0
2015-Feb-27 10:18 138 6 gusting 10 4.4
2015-Feb-27 10:08 124 6 gusting 10 5.0
2015-Feb-27 09:58 121 5 gusting 8 4.4
2015-Feb-27 09:48 134 5 gusting 10 4.4
2015-Feb-27 09:38 126 4 gusting 10 4.4
2015-Feb-27 09:28 151 2 gusting 7 4.4
2015-Feb-27 09:18 137 4 gusting 10 4.4
2015-Feb-27 09:08 121 6 gusting 10 4.4
2015-Feb-27 08:58 129 6 gusting 12 4.4
2015-Feb-27 08:48 138 6 gusting 13 4.4
2015-Feb-27 08:38 143 7 gusting 13 4.4
2015-Feb-27 08:28 131 10 gusting 13 3.9
2015-Feb-27 08:18 132 5 gusting 13 3.9
2015-Feb-27 08:08 128 9 gusting 13 3.9
2015-Feb-27 07:58 137 6 gusting 14 3.9
2015-Feb-27 07:48 152 6 gusting 13 3.9
2015-Feb-27 07:38 148 7 gusting 13 3.9
2015-Feb-27 07:28 134 8 gusting 13 3.9
2015-Feb-27 07:18 129 8 gusting 13 3.9
2015-Feb-27 07:08 109 11 gusting 18 3.9
2015-Feb-27 06:58 134 10 gusting 17 3.9
2015-Feb-27 06:48 114 10 gusting 17 3.9
2015-Feb-27 06:38 140 9 gusting 15 3.9
2015-Feb-27 06:28 133 6 gusting 14 3.9
2015-Feb-27 06:18 128 8 gusting 13 3.9
2015-Feb-27 06:08 118 5 gusting 13 3.9
2015-Feb-27 05:58 127 9 gusting 12 3.9
2015-Feb-27 05:48 129 7 gusting 12 3.9
2015-Feb-27 05:38 119 6 gusting 11 3.3
2015-Feb-27 05:28 114 6 gusting 12 3.3
2015-Feb-27 05:18 108 6 gusting 12 3.9
2015-Feb-27 05:08 113 6 gusting 12 3.9
2015-Feb-27 04:58 121 7 gusting 13 3.9
2015-Feb-27 04:48 129 7 gusting 15 3.9
2015-Feb-27 04:38 130 4 gusting 10 3.9
2015-Feb-27 04:28 133 4 gusting 11 3.9
2015-Feb-27 04:18 122 5 gusting 11 3.9
2015-Feb-27 04:08 101 6 gusting 13 3.9
2015-Feb-27 03:58 132 7 gusting 13 3.9
2015-Feb-27 03:48 134 6 gusting 14 3.9
2015-Feb-27 03:38 133 7 gusting 13 3.9
2015-Feb-27 03:28 124 7 gusting 15 3.9
2015-Feb-27 03:18 125 9 gusting 17 3.9
2015-Feb-27 03:08 123 7 gusting 17 4.4
2015-Feb-27 02:58 124 10 gusting 19 4.4
2015-Feb-27 02:48 129 11 gusting 21 5.0
2015-Feb-27 02:38 146 10 gusting 19 5.0
2015-Feb-27 02:28 131 8 gusting 15 5.0
2015-Feb-27 02:18 137 6 gusting 20 5.0
2015-Feb-27 02:08 141 7 gusting 17 5.0
2015-Feb-27 01:58 157 8 gusting 25 5.0
2015-Feb-27 01:48 130 9 gusting 22 5.0
2015-Feb-27 01:38 132 9 gusting 17 5.0
2015-Feb-27 01:28 126 7 gusting 15 4.4
2015-Feb-27 01:18 133 3 gusting 15 4.4
2015-Feb-27 01:08 124 11 gusting 18 4.4
2015-Feb-27 00:58 132 6 gusting 13 4.4
2015-Feb-27 00:48 146 8 gusting 15 5.0
2015-Feb-27 00:38 151 10 gusting 17 5.0
2015-Feb-27 00:28 150 7 gusting 19 5.0
2015-Feb-27 00:18 145 6 gusting 15 5.0
2015-Feb-27 00:08 152 7 gusting 15 5.0
2015-Feb-26 23:58 154 11 gusting 18 5.0
2015-Feb-26 23:48 147 10 gusting 17 5.0
2015-Feb-26 23:38 149 9 gusting 15 5.0
2015-Feb-26 23:28 143 8 gusting 17 5.0
2015-Feb-26 23:18 130 12 gusting 17 5.0
2015-Feb-26 23:08 123 10 gusting 18 5.0
2015-Feb-26 22:58 130 12 gusting 21 5.0
2015-Feb-26 22:48 140 9 gusting 18 5.0
2015-Feb-26 22:38 142 9 gusting 18 4.4
2015-Feb-26 22:28 132 13 gusting 19 4.4
2015-Feb-26 22:18 145 12 gusting 22 4.4
2015-Feb-26 22:08 134 18 gusting 22 4.4
2015-Feb-26 21:58 135 14 gusting 22 4.4
2015-Feb-26 21:48 155 17 gusting 28 4.4
2015-Feb-26 21:38 141 17 gusting 26 4.4
2015-Feb-26 21:28 131 19 gusting 28 4.4
2015-Feb-26 21:18 136 18 gusting 26 4.4
2015-Feb-26 21:08 150 19 gusting 26 4.4
2015-Feb-26 20:58 154 17 gusting 26 4.4
2015-Feb-26 20:48 136 18 gusting 27 4.4
2015-Feb-26 20:38 142 15 gusting 25 4.4
2015-Feb-26 20:28 144 17 gusting 25 4.4
2015-Feb-26 20:18 135 12 gusting 18 4.4
2015-Feb-26 20:08 139 11 gusting 17 4.4
2015-Feb-26 19:58 147 12 gusting 18 4.4
2015-Feb-26 19:48 128 7 gusting 24 5.0
2015-Feb-26 19:38 155 12 gusting 20 5.0
2015-Feb-26 19:28 142 13 gusting 25 5.0
2015-Feb-26 19:18 133 13 gusting 21 5.0
2015-Feb-26 19:08 135 12 gusting 25 5.0
2015-Feb-26 18:58 131 7 gusting 18 4.4
2015-Feb-26 18:48 145 13 gusting 19 4.4
2015-Feb-26 18:38 128 10 gusting 19 4.4
2015-Feb-26 18:28 141 13 gusting 20 4.4
2015-Feb-26 18:18 126 10 gusting 19 4.4
2015-Feb-26 18:08 139 13 gusting 20 4.4
2015-Feb-26 17:58 136 15 gusting 24 4.4
2015-Feb-26 17:48 140 17 gusting 26 4.4
2015-Feb-26 17:38 135 13 gusting 22 3.9
2015-Feb-26 17:28 140 13 gusting 24 3.9
2015-Feb-26 17:18 132 13 gusting 27 3.9
2015-Feb-26 17:08 157 15 gusting 26 3.9
2015-Feb-26 16:58 132 16 gusting 25 3.9
2015-Feb-26 16:48 132 15 gusting 28 3.9
2015-Feb-26 16:38 143 17 gusting 27 3.9
2015-Feb-26 16:28 137 18 gusting 31 3.9
2015-Feb-26 16:18 149 16 gusting 28 3.9
2015-Feb-26 16:08 132 17 gusting 28 3.9
2015-Feb-26 15:58 132 22 gusting 33 3.9
2015-Feb-26 15:48 137 17 gusting 26 3.9
2015-Feb-26 15:38 151 16 gusting 26 3.9
2015-Feb-26 15:28 124 20 gusting 33 3.9
2015-Feb-26 15:18 112 19 gusting 28 3.9
2015-Feb-26 15:08 133 19 gusting 30 3.9
2015-Feb-26 14:58 131 20 gusting 28 3.9
2015-Feb-26 14:48 135 19 gusting 26 4.4
2015-Feb-26 14:38 137 19 gusting 26 4.4
2015-Feb-26 14:28 114 15 gusting 28 4.4
2015-Feb-26 14:18 130 21 gusting 34 4.4
2015-Feb-26 14:08 133 25 gusting 33 4.4
2015-Feb-26 13:58 133 19 gusting 28 3.9
2015-Feb-26 13:48 131 22 gusting 33 4.4
2015-Feb-26 13:38 138 22 gusting 30 3.9
2015-Feb-26 13:28 134 19 gusting 31 3.9
2015-Feb-26 13:18 132 19 gusting 27 3.9
2015-Feb-26 13:08 134 19 gusting 26 3.9
2015-Feb-26 12:58 136 15 gusting 27 3.9
2015-Feb-26 12:48 143 16 gusting 22 3.9
2015-Feb-26 12:38 126 14 gusting 21 3.9
2015-Feb-26 12:28 133 15 gusting 26 3.9
2015-Feb-26 12:18 136 14 gusting 26 3.9
2015-Feb-26 12:08 141 14 gusting 25 3.9
2015-Feb-26 11:58 128 20 gusting 28 3.3
2015-Feb-26 11:48 135 21 gusting 28 3.3
2015-Feb-26 11:38 133 18 gusting 28 3.3
2015-Feb-26 11:28 132 18 gusting 27 3.3
2015-Feb-26 11:18 142 18 gusting 24 3.3
2015-Feb-26 11:08 138 17 gusting 27 3.9
2015-Feb-26 10:58 131 14 gusting 22 3.9
2015-Feb-26 10:48 122 14 gusting 24 3.9
2015-Feb-26 10:38 147 13 gusting 20 3.9
2015-Feb-26 10:28 122 9 gusting 17 3.9
2015-Feb-26 10:18 129 10 gusting 21 3.3
2015-Feb-26 10:08 131 12 gusting 18 3.3
2015-Feb-26 09:58 135 10 gusting 19 3.9
2015-Feb-26 09:48 173 13 gusting 20 3.3
2015-Feb-26 09:38 125 13 gusting 22 3.3
2015-Feb-26 09:28 128 14 gusting 21 3.3
2015-Feb-26 09:18 127 12 gusting 19 2.8
2015-Feb-26 09:08 137 12 gusting 21 2.8
2015-Feb-26 08:58 141 12 gusting 18 2.8
2015-Feb-26 08:48 126 14 gusting 21 2.8
2015-Feb-26 08:38 127 15 gusting 22 2.8
2015-Feb-26 08:28 125 14 gusting 22 2.8
2015-Feb-26 08:18 121 17 gusting 22 2.8
2015-Feb-26 08:08 124 13 gusting 21 2.8
2015-Feb-26 07:58 113 11 gusting 18 3.3
2015-Feb-26 07:48 117 13 gusting 18 3.3
2015-Feb-26 07:38 134 13 gusting 19 3.3
2015-Feb-26 07:28 140 10 gusting 17 2.8
2015-Feb-26 07:18 115 12 gusting 17 2.8
2015-Feb-26 07:08 124 11 gusting 18 2.8
2015-Feb-26 06:58 115 8 gusting 14 2.2
2015-Feb-26 06:48 108 7 gusting 11 2.2
2015-Feb-26 06:38 132 4 gusting 10 2.2
2015-Feb-26 06:28 149 5 gusting 10 2.2
2015-Feb-26 06:18 160 4 gusting 10 2.2
2015-Feb-26 06:08 150 6 gusting 13 2.2
2015-Feb-26 05:58 134 6 gusting 11 2.2
2015-Feb-26 05:48 132 5 gusting 8 2.2
2015-Feb-26 05:38 158 4 gusting 7 2.2
2015-Feb-26 05:28 151 4 gusting 8 2.2
2015-Feb-26 05:18 149 4 gusting 8 2.2
2015-Feb-26 05:08 151 2 gusting 7 2.2
2015-Feb-26 04:58 153 4 gusting 7 2.8
2015-Feb-26 04:48 126 2 gusting 10 2.8
2015-Feb-26 04:38 127 5 gusting 8 2.8
2015-Feb-26 04:28 118 6 gusting 10 2.8
2015-Feb-26 04:18 153 4 gusting 10 2.8
2015-Feb-26 04:08 169 5 gusting 10 2.2
2015-Feb-26 03:58 138 2 gusting 5 2.2
2015-Feb-26 03:48 138 0 gusting 4 2.2
2015-Feb-26 03:38 138 0 gusting 2 2.2
2015-Feb-26 03:28 138 0 gusting 2 2.2
2015-Feb-26 03:18 138 1 gusting 2 2.8
2015-Feb-26 03:08 138 0 gusting 6 2.8
2015-Feb-26 02:58 142 2 gusting 6 2.8
2015-Feb-26 02:48 142 3 gusting 10 3.3
2015-Feb-26 02:38 143 3 gusting 7 2.8
2015-Feb-26 02:28 138 1 gusting 4 2.2
2015-Feb-26 02:18 138 0 gusting 4 2.2
2015-Feb-26 02:08 138 0 gusting 2 2.2
2015-Feb-26 01:58 138 2.2
2015-Feb-26 01:48 138 2.8
2015-Feb-26 01:38 138 0 gusting 2 3.3
2015-Feb-26 01:28 138 1 gusting 5 3.3
2015-Feb-26 01:18 138 2 gusting 6 3.3
2015-Feb-26 01:08 123 5 gusting 7 3.3
2015-Feb-26 00:58 117 2 gusting 10 3.3
2015-Feb-26 00:48 100 2 gusting 6 3.3
2015-Feb-26 00:38 115 3 gusting 6 2.8
2015-Feb-26 00:28 110 0 gusting 2 2.8
2015-Feb-26 00:18 110 0 gusting 5 3.3
2015-Feb-26 00:08 108 1 gusting 5 3.3
2015-Feb-25 23:58 104 2 gusting 5 2.8
2015-Feb-25 23:48 109 1 gusting 4 2.8
2015-Feb-25 23:38 109 2.8
2015-Feb-25 23:28 109 2.8
2015-Feb-25 23:18 109 2.8
2015-Feb-25 23:08 109 2.8
2015-Feb-25 22:58 109 0 gusting 5 2.8
2015-Feb-25 22:48 112 2 gusting 5 2.8
2015-Feb-25 22:38 112 2 gusting 5 2.8
2015-Feb-25 22:28 114 4 gusting 6 2.8
2015-Feb-25 22:18 109 1 gusting 5 2.8
2015-Feb-25 22:08 092 1 gusting 2 2.2
2015-Feb-25 21:58 055 0 gusting 2 2.2
2015-Feb-25 21:48 336 2.2
2015-Feb-25 21:39 336 2.2
2015-Feb-25 21:28 336 2.2
2015-Feb-25 21:18 336 2.2
2015-Feb-25 21:08 344 2.2
2015-Feb-25 20:58 344 2.2
2015-Feb-25 20:48 344 2.2
2015-Feb-25 20:38 345 1 gusting 2 2.2
2015-Feb-25 20:28 341 2.2
2015-Feb-25 20:18 340 2.2
2015-Feb-25 20:08 340 2.2
2015-Feb-25 19:58 340 2.2
2015-Feb-25 19:48 336 2 gusting 5 2.2
2015-Feb-25 19:38 327 1 gusting 4 2.2
2015-Feb-25 19:28 021 2.2
2015-Feb-25 19:18 021 2.2
2015-Feb-25 19:08 021 2.2
2015-Feb-25 18:58 021 2.2
2015-Feb-25 18:48 021 2.2
2015-Feb-25 18:38 026 1 gusting 6 2.2
2015-Feb-25 18:28 083 2.8
2015-Feb-25 18:18 114 0 gusting 6 2.8
2015-Feb-25 18:08 114 0 gusting 6 2.8
2015-Feb-25 17:58 101 0 gusting 4 2.8
2015-Feb-25 17:48 126 0 gusting 6 3.3
2015-Feb-25 17:38 116 1 gusting 7 3.3
2015-Feb-25 17:28 079 1 gusting 6 3.3
2015-Feb-25 17:18 124 1 gusting 10 3.3
2015-Feb-25 17:08 128 4 gusting 10 3.3
2015-Feb-25 16:58 119 6 gusting 10 2.8
2015-Feb-25 16:48 105 6 gusting 10 2.8
2015-Feb-25 16:38 115 6 gusting 13 2.8
2015-Feb-25 16:28 116 7 gusting 14 2.8
2015-Feb-25 16:18 113 7 gusting 15 2.8
2015-Feb-25 16:08 099 11 gusting 15 2.8